This is the latest recevied weather packets stored in our database for station/object K1KOF. If no packets are shown the sender has not sent any weather packets the latest 1 day(s).
| Time | Temp. | Humidity | Pressure | Rain* | Wind** | Luminosity | Snow |
|---|---|---|---|---|---|---|---|
| 1778040996 | 20° C | 76% | 1025.1 hPa | 0 mm | 1.79 m/s, 196° | 0 W/m² | - |
| 1778040692 | 20° C | 76% | 1025.2 hPa | 0 mm | 2.68 m/s, 194° | 0 W/m² | - |
| 1778040390 | 20° C | 76% | 1025.2 hPa | 0 mm | 3.13 m/s, 195° | 0 W/m² | - |
| 1778040086 | 20° C | 76% | 1025 hPa | 0 mm | 1.34 m/s, 188° | 0 W/m² | - |
| 1778039783 | 20° C | 76% | 1025.1 hPa | 0 mm | 2.24 m/s, 195° | 0 W/m² | - |
| 1778039480 | 20° C | 76% | 1024.9 hPa | 0 mm | 4.02 m/s, 219° | 0 W/m² | - |
| 1778039177 | 20° C | 75% | 1025.2 hPa | 0 mm | 1.79 m/s, 186° | 0 W/m² | - |
| 1778038874 | 20.56° C | 75% | 1024.9 hPa | 0 mm | 1.79 m/s, 233° | 0 W/m² | - |
| 1778038571 | 20.56° C | 74% | 1025 hPa | 0 mm | 0.89 m/s, 132° | 0 W/m² | - |
| 1778038268 | 20.56° C | 73% | 1024.9 hPa | 0 mm | 2.24 m/s, 196° | 0 W/m² | - |
| 1778037966 | 20.56° C | 73% | 1025 hPa | 0 mm | 2.68 m/s, 195° | 0 W/m² | - |
| 1778037662 | 20.56° C | 73% | 1024.8 hPa | 0 mm | 1.34 m/s, 193° | 0 W/m² | - |
| 1778037360 | 20.56° C | 72% | 1025 hPa | 0 mm | 1.34 m/s, 188° | 0 W/m² | - |
| 1778037056 | 20.56° C | 71% | 1025.1 hPa | 0 mm | 2.24 m/s, 201° | 0 W/m² | - |
| 1778036755 | 20.56° C | 71% | 1025.1 hPa | 0 mm | 2.68 m/s, 184° | 0 W/m² | - |
| 1778036452 | 20.56° C | 70% | 1025 hPa | 0 mm | 2.24 m/s, 196° | 0 W/m² | - |
| 1778036148 | 21.11° C | 69% | 1024.8 hPa | 0 mm | 1.34 m/s, 212° | 0 W/m² | - |
| 1778035844 | 21.11° C | 68% | 1024.8 hPa | 0 mm | 2.24 m/s, 185° | 0 W/m² | - |
| 1778035542 | 21.11° C | 67% | 1024.7 hPa | 0 mm | 2.24 m/s, 158° | 0 W/m² | - |
| 1778035238 | 21.11° C | 67% | 1024.7 hPa | 0 mm | 3.13 m/s, 202° | 0 W/m² | - |
| 1778034934 | 21.11° C | 67% | 1024.6 hPa | 0 mm | 4.47 m/s, 199° | 0 W/m² | - |
| 1778034635 | 19.44° C | 75% | 1024.5 hPa | 0 mm | 1.34 m/s, 138° | 0 W/m² | - |
| 1778034329 | 18.89° C | 76% | 1024.2 hPa | 0 mm | 0.89 m/s, 121° | 0 W/m² | - |
| 1778034027 | 18.89° C | 75% | 1024.3 hPa | 0 mm | 0 m/s | 0 W/m² | - |
| 1778033724 | 18.89° C | 74% | 1024.5 hPa | 0 mm | 0.89 m/s, 78° | 0 W/m² | - |
* Rain latest hour (hover to see other rain measurements)
** Current wind speed in m/s (hover to see current wind gust speed)